Terminal Aerodrome Forecast
Issued by NWS

Home | Current Version | Previous Version | Text Only | Print | Product List | Glossary On
Versions: 1 2 3 4 5 6 7 8 9 10 11 12 13 14 15 16 17
734
FTUS41 KPBZ 110532
TAFLBE
TAF
KLBE 110532Z 1106/1206 00000KT P6SM SCT035 OVC090
     FM110900 17003KT 3SM -SN OVC025
     FM111600 15006KT P6SM -SN OVC035
     FM112100 14007KT P6SM OVC080
     FM120300 14007KT 5SM -RASN OVC035=

USA.gov is the U.S. government's official web portal to all federal, state and local government web resources and services.